createdAt,value
2023-01-22T00:01:27.651Z,9.42
2023-01-22T00:03:55.173Z,9.70
2023-01-22T00:06:23.684Z,9.68
2023-01-22T00:08:51.053Z,9.85
2023-01-22T00:11:19.025Z,9.68
2023-01-22T00:13:46.410Z,9.52
2023-01-22T00:16:14.498Z,9.34
2023-01-22T00:18:42.111Z,9.53
2023-01-22T00:21:09.425Z,9.54
2023-01-22T00:23:36.696Z,9.09
2023-01-22T00:26:05.064Z,8.97
2023-01-22T00:28:32.388Z,9.50
2023-01-22T00:31:00.299Z,9.61
2023-01-22T00:33:28.055Z,9.43
2023-01-22T00:35:55.755Z,9.69
2023-01-22T00:38:22.955Z,9.71
2023-01-22T00:40:50.394Z,9.88
2023-01-22T00:43:17.602Z,9.84
2023-01-22T00:45:44.770Z,9.98
2023-01-22T00:48:12.245Z,9.86
2023-01-22T00:50:39.596Z,9.74
2023-01-22T00:53:06.810Z,9.89
2023-01-22T00:55:34.342Z,10.01
2023-01-22T00:58:01.486Z,10.00
2023-01-22T01:00:28.841Z,10.10
2023-01-22T01:03:15.172Z,10.15
2023-01-22T01:05:42.990Z,10.02
2023-01-22T01:08:10.475Z,10.08
2023-01-22T01:10:39.318Z,10.09
2023-01-22T01:13:06.519Z,10.09
2023-01-22T01:15:34.817Z,9.84
2023-01-22T01:18:02.069Z,10.18
2023-01-22T01:20:29.326Z,10.01
2023-01-22T01:22:56.938Z,10.09
2023-01-22T01:25:24.090Z,9.92
2023-01-22T01:27:51.293Z,10.18
2023-01-22T01:30:19.074Z,9.99
2023-01-22T01:32:46.443Z,9.90
2023-01-22T01:35:13.619Z,9.45
2023-01-22T01:37:41.075Z,8.42
2023-01-22T01:40:10.400Z,9.62
2023-01-22T01:42:39.328Z,9.65
2023-01-22T01:45:25.516Z,9.91
2023-01-22T01:48:12.916Z,9.96
2023-01-22T01:50:40.765Z,9.94
2023-01-22T01:53:07.969Z,10.11
2023-01-22T01:55:35.315Z,9.94
2023-01-22T01:58:04.019Z,9.44
2023-01-22T02:00:31.570Z,9.80
2023-01-22T02:02:59.083Z,9.78
2023-01-22T02:05:26.309Z,9.81
2023-01-22T02:07:53.661Z,10.06
2023-01-22T02:10:21.084Z,10.07
2023-01-22T02:12:48.303Z,10.10
2023-01-22T02:15:15.460Z,9.94
2023-01-22T02:17:42.908Z,10.22
2023-01-22T02:20:10.491Z,10.28
2023-01-22T02:22:38.016Z,9.85
2023-01-22T02:25:05.707Z,10.24
2023-01-22T02:27:32.892Z,10.04
2023-01-22T02:30:00.125Z,10.00
2023-01-22T02:32:28.930Z,9.96
2023-01-22T02:34:56.572Z,9.94
2023-01-22T02:37:23.772Z,10.07
2023-01-22T02:39:52.999Z,10.18
2023-01-22T02:42:20.306Z,10.21
2023-01-22T02:44:47.510Z,10.31
2023-01-22T02:47:14.993Z,9.97
2023-01-22T02:49:42.186Z,9.83
2023-01-22T02:52:09.401Z,10.02
2023-01-22T02:54:37.013Z,10.00
2023-01-22T02:57:04.268Z,9.78
2023-01-22T02:59:31.480Z,9.71
2023-01-22T03:01:59.052Z,9.08
2023-01-22T03:04:27.289Z,9.58
2023-01-22T03:06:54.538Z,9.16
2023-01-22T03:09:22.807Z,9.67
2023-01-22T03:11:51.066Z,9.76
2023-01-22T03:14:38.742Z,9.68
2023-01-22T03:17:25.534Z,9.74
2023-01-22T03:20:11.432Z,9.68
2023-01-22T03:22:38.880Z,9.56
2023-01-22T03:25:06.302Z,9.84
2023-01-22T03:27:33.665Z,9.86
2023-01-22T03:30:01.136Z,9.89
2023-01-22T03:32:31.825Z,9.91
2023-01-22T03:34:59.352Z,9.85
2023-01-22T03:37:27.764Z,9.82
2023-01-22T03:39:57.372Z,10.01
2023-01-22T03:42:25.453Z,9.91
2023-01-22T03:44:52.979Z,9.73
2023-01-22T03:47:20.366Z,9.86
2023-01-22T03:49:47.499Z,9.88
2023-01-22T03:52:15.057Z,9.86
2023-01-22T03:54:42.271Z,9.83
2023-01-22T03:57:09.973Z,9.99
2023-01-22T03:59:37.748Z,9.53
2023-01-22T04:02:04.937Z,9.90
2023-01-22T04:04:35.069Z,9.93
2023-01-22T04:07:02.676Z,10.02
2023-01-22T04:09:29.931Z,10.00
2023-01-22T04:11:57.735Z,9.86
2023-01-22T04:14:26.338Z,9.99
2023-01-22T04:16:54.207Z,9.75
2023-01-22T04:19:22.745Z,9.74
2023-01-22T04:21:50.461Z,9.74
2023-01-22T04:24:19.852Z,9.96
2023-01-22T04:26:48.147Z,9.95
2023-01-22T04:29:15.948Z,10.04
2023-01-22T04:31:43.894Z,9.92
2023-01-22T04:34:11.900Z,8.89
2023-01-22T04:36:39.486Z,9.49
2023-01-22T04:39:06.686Z,9.18
2023-01-22T04:41:34.220Z,9.74
2023-01-22T04:44:01.411Z,9.41
2023-01-22T04:46:29.003Z,9.24
2023-01-22T04:48:56.460Z,9.18
2023-01-22T04:51:23.760Z,9.48
2023-01-22T04:53:51.121Z,9.62
2023-01-22T04:56:18.729Z,9.45
2023-01-22T04:58:46.232Z,9.81
2023-01-22T05:01:14.056Z,9.19
2023-01-22T05:03:41.853Z,9.60
2023-01-22T05:06:09.653Z,9.69
2023-01-22T05:08:37.005Z,9.78
2023-01-22T05:11:04.549Z,9.82
2023-01-22T05:13:31.999Z,9.64
2023-01-22T05:15:59.235Z,9.13
2023-01-22T05:18:26.776Z,9.50
2023-01-22T05:20:53.968Z,9.25
2023-01-22T05:23:21.692Z,9.67
2023-01-22T05:25:49.255Z,9.58
2023-01-22T05:28:16.810Z,9.60
2023-01-22T05:30:47.827Z,9.35
2023-01-22T05:33:15.819Z,9.50
2023-01-22T05:35:43.073Z,9.51
2023-01-22T05:38:11.247Z,9.31
2023-01-22T05:40:38.916Z,9.56
2023-01-22T05:43:06.107Z,9.49
2023-01-22T05:45:33.569Z,9.76
2023-01-22T05:48:02.066Z,9.90
2023-01-22T05:50:30.355Z,9.78
2023-01-22T05:53:01.393Z,9.79
2023-01-22T05:55:28.976Z,9.84
2023-01-22T05:57:56.404Z,9.75
2023-01-22T06:00:24.066Z,10.00
2023-01-22T06:02:59.020Z,10.26
2023-01-22T06:05:26.600Z,9.71
2023-01-22T06:07:55.612Z,10.07
2023-01-22T06:10:24.171Z,10.18
2023-01-22T06:12:51.377Z,9.95
2023-01-22T06:15:19.312Z,9.82
2023-01-22T06:17:47.754Z,9.50
2023-01-22T06:20:15.154Z,9.19
2023-01-22T06:22:42.734Z,9.51
2023-01-22T06:25:10.624Z,9.85
2023-01-22T06:27:40.172Z,9.73
2023-01-22T06:30:07.999Z,9.71
2023-01-22T06:32:35.159Z,9.54
2023-01-22T06:35:02.629Z,9.39
2023-01-22T06:37:30.148Z,9.55
2023-01-22T06:39:57.422Z,9.56
2023-01-22T06:42:25.323Z,9.69
2023-01-22T06:44:52.778Z,9.49
2023-01-22T06:47:20.167Z,9.84
2023-01-22T06:49:47.501Z,9.95
2023-01-22T06:52:15.172Z,9.55
2023-01-22T06:54:42.416Z,9.60
2023-01-22T06:57:09.927Z,9.82
2023-01-22T06:59:37.924Z,9.97
2023-01-22T07:02:05.103Z,10.04
2023-01-22T07:04:32.329Z,10.03
2023-01-22T07:06:59.822Z,10.06
2023-01-22T07:09:27.094Z,10.11
2023-01-22T07:11:54.284Z,10.08
2023-01-22T07:14:36.203Z,9.94
2023-01-22T07:17:03.873Z,10.25
2023-01-22T07:19:31.317Z,9.94
2023-01-22T07:21:58.548Z,10.21
2023-01-22T07:24:25.724Z,10.31
2023-01-22T07:26:53.188Z,10.19
2023-01-22T07:29:20.541Z,10.32
2023-01-22T07:31:49.737Z,10.31
2023-01-22T07:34:17.419Z,10.38
2023-01-22T07:36:46.310Z,10.35
2023-01-22T07:39:13.828Z,10.38
2023-01-22T07:41:41.682Z,10.37
2023-01-22T07:44:10.956Z,10.43
2023-01-22T07:46:39.146Z,10.44
2023-01-22T07:49:06.834Z,10.33
2023-01-22T07:51:34.065Z,10.07
2023-01-22T07:54:01.227Z,10.35
2023-01-22T07:56:28.734Z,10.12
2023-01-22T07:58:55.925Z,10.12
2023-01-22T08:01:23.198Z,10.33
2023-01-22T08:03:50.653Z,10.44
2023-01-22T08:06:18.292Z,10.45
2023-01-22T08:08:45.550Z,10.46
2023-01-22T08:11:13.008Z,10.43
2023-01-22T08:13:40.329Z,10.34
2023-01-22T08:16:09.330Z,10.23
2023-01-22T08:18:36.989Z,10.28
2023-01-22T08:21:04.296Z,9.90
2023-01-22T08:23:31.567Z,10.16
2023-01-22T08:26:04.328Z,10.01
2023-01-22T08:28:31.657Z,9.51
2023-01-22T08:30:59.553Z,9.50
2023-01-22T08:33:26.796Z,9.00
2023-01-22T08:35:54.030Z,9.15
2023-01-22T08:38:21.535Z,9.21
2023-01-22T08:40:49.845Z,9.13
2023-01-22T08:43:17.091Z,8.82
2023-01-22T08:45:45.025Z,9.43
2023-01-22T08:48:12.170Z,9.26
2023-01-22T08:50:39.345Z,9.43
2023-01-22T08:53:06.884Z,8.56
2023-01-22T08:55:34.223Z,8.29
2023-01-22T08:58:01.397Z,8.41
2023-01-22T09:00:29.139Z,8.28
2023-01-22T09:02:56.956Z,8.26
2023-01-22T09:05:24.164Z,8.39
2023-01-22T09:07:51.819Z,8.66
2023-01-22T09:10:21.529Z,7.86
2023-01-22T09:12:49.142Z,7.97
2023-01-22T09:15:16.660Z,8.30
2023-01-22T09:17:43.972Z,8.54
2023-01-22T09:20:11.133Z,9.00
2023-01-22T09:22:38.678Z,8.83
2023-01-22T09:25:06.400Z,8.24
2023-01-22T09:27:33.571Z,8.75
2023-01-22T09:30:01.038Z,7.93
2023-01-22T09:32:28.281Z,7.96
2023-01-22T09:34:55.479Z,8.12
2023-01-22T09:37:22.964Z,8.26
2023-01-22T09:39:50.492Z,8.95
2023-01-22T09:42:20.825Z,8.98
2023-01-22T09:44:48.951Z,8.96
2023-01-22T09:47:17.783Z,9.48
2023-01-22T09:49:52.687Z,9.44
2023-01-22T09:52:20.197Z,9.26
2023-01-22T09:54:49.490Z,9.30
2023-01-22T09:57:30.678Z,9.10
2023-01-22T10:00:00.319Z,9.04
2023-01-22T10:02:31.139Z,9.53
2023-01-22T10:05:05.429Z,9.25
2023-01-22T10:07:35.127Z,9.95
2023-01-22T10:10:09.839Z,9.45
2023-01-22T10:12:37.014Z,10.07
2023-01-22T10:15:04.715Z,10.22
2023-01-22T10:17:32.705Z,10.01
2023-01-22T10:20:01.017Z,9.78
2023-01-22T10:22:28.477Z,9.60
2023-01-22T10:24:55.851Z,9.07
2023-01-22T10:27:25.329Z,9.86
2023-01-22T10:30:08.297Z,9.76
2023-01-22T10:32:35.511Z,9.78
2023-01-22T10:35:05.779Z,10.36
2023-01-22T10:37:42.914Z,9.65
2023-01-22T10:40:46.072Z,9.57
2023-01-22T10:43:14.277Z,9.57
2023-01-22T10:45:55.488Z,9.30
2023-01-22T10:48:22.846Z,8.85
2023-01-22T10:51:19.912Z,8.85
2023-01-22T10:53:48.025Z,9.48
2023-01-22T10:56:24.946Z,9.03
2023-01-22T10:58:52.197Z,9.17
2023-01-22T11:01:27.827Z,8.89
2023-01-22T11:03:55.132Z,8.30
2023-01-22T11:06:24.684Z,8.75
2023-01-22T11:08:53.792Z,8.93
2023-01-22T11:11:23.935Z,8.78
2023-01-22T11:14:04.923Z,8.60
2023-01-22T11:16:32.795Z,8.72
2023-01-22T11:19:02.422Z,8.28
2023-01-22T11:21:30.829Z,8.75
2023-01-22T11:24:05.160Z,8.54
2023-01-22T11:27:02.143Z,8.78
2023-01-22T11:29:47.855Z,8.53
2023-01-22T11:32:34.104Z,9.13
2023-01-22T11:35:01.278Z,8.54
2023-01-22T11:37:41.881Z,7.56
2023-01-22T11:40:12.063Z,7.85
2023-01-22T11:42:48.436Z,8.42
2023-01-22T11:45:21.820Z,7.94
2023-01-22T11:48:01.595Z,8.43
2023-01-22T11:50:47.821Z,8.11
2023-01-22T11:53:18.016Z,8.58
2023-01-22T11:56:01.156Z,8.59
2023-01-22T11:58:28.620Z,9.09
2023-01-22T12:01:08.885Z,9.02
2023-01-22T12:03:45.939Z,8.88
2023-01-22T12:06:13.376Z,8.82
2023-01-22T12:08:52.996Z,9.26
2023-01-22T12:11:39.152Z,9.37
2023-01-22T12:14:10.721Z,8.90
2023-01-22T12:16:43.775Z,8.49
2023-01-22T12:19:15.553Z,9.56
2023-01-22T12:21:48.841Z,9.65
2023-01-22T12:24:22.584Z,8.63
2023-01-22T12:27:22.521Z,9.53
2023-01-22T12:29:52.994Z,9.51
2023-01-22T12:32:23.021Z,9.09
2023-01-22T12:34:52.556Z,9.39
2023-01-22T12:37:21.856Z,9.97
2023-01-22T12:39:49.717Z,9.71
2023-01-22T12:42:26.067Z,10.09
2023-01-22T12:45:05.183Z,9.99
2023-01-22T12:47:36.735Z,9.93
2023-01-22T12:50:04.902Z,9.57
2023-01-22T12:52:32.589Z,9.86
2023-01-22T12:55:00.090Z,10.45
2023-01-22T12:57:40.100Z,10.41
2023-01-22T13:00:26.419Z,10.75
2023-01-22T13:02:53.633Z,10.77
2023-01-22T13:05:27.156Z,10.66
2023-01-22T13:08:08.148Z,10.94
2023-01-22T13:10:36.305Z,10.84
2023-01-22T13:13:03.443Z,10.28
2023-01-22T13:15:32.484Z,10.47
2023-01-22T13:18:08.069Z,10.89
2023-01-22T13:20:36.721Z,10.70
2023-01-22T13:23:05.398Z,10.84
2023-01-22T13:25:33.102Z,9.79
2023-01-22T13:28:00.577Z,10.23
2023-01-22T13:30:28.626Z,10.61
2023-01-22T13:33:12.217Z,9.76
2023-01-22T13:35:43.849Z,10.08
2023-01-22T13:38:18.426Z,9.32
2023-01-22T13:40:51.435Z,10.26
2023-01-22T13:43:19.575Z,10.09
2023-01-22T13:45:47.013Z,9.84
2023-01-22T13:48:15.902Z,9.89
2023-01-22T13:50:45.511Z,9.83
2023-01-22T13:53:22.844Z,9.73
2023-01-22T13:55:50.406Z,9.87
2023-01-22T13:58:47.112Z,10.05
2023-01-22T14:01:28.330Z,9.84
2023-01-22T14:04:18.597Z,9.44
2023-01-22T14:06:47.374Z,9.50
2023-01-22T14:09:24.988Z,9.20
2023-01-22T14:11:52.367Z,9.97
2023-01-22T14:14:19.898Z,10.36
2023-01-22T14:16:47.399Z,10.57
2023-01-22T14:19:14.775Z,10.48
2023-01-22T14:21:42.642Z,10.68
2023-01-22T14:24:10.094Z,9.29
2023-01-22T14:26:37.315Z,10.07
2023-01-22T14:29:05.009Z,10.88
2023-01-22T14:31:32.365Z,11.18
2023-01-22T14:33:59.704Z,11.25
2023-01-22T14:36:27.253Z,11.21
2023-01-22T14:38:55.403Z,11.04
2023-01-22T14:41:22.719Z,11.04
2023-01-22T14:43:50.250Z,10.13
2023-01-22T14:46:17.691Z,10.46
2023-01-22T14:48:45.142Z,10.70
2023-01-22T14:51:12.939Z,10.79
2023-01-22T14:53:40.308Z,10.63
2023-01-22T14:56:07.771Z,10.62
2023-01-22T14:58:36.322Z,10.52
2023-01-22T15:01:13.730Z,10.66
2023-01-22T15:03:41.481Z,10.30
2023-01-22T15:06:08.822Z,10.35
2023-01-22T15:08:36.328Z,10.37
2023-01-22T15:11:05.661Z,10.55
2023-01-22T15:13:33.359Z,10.90
2023-01-22T15:16:04.569Z,11.10
2023-01-22T15:18:32.084Z,11.37
2023-01-22T15:20:59.412Z,10.81
2023-01-22T15:23:26.810Z,11.16
2023-01-22T15:26:01.257Z,11.00
2023-01-22T15:28:28.624Z,11.32
2023-01-22T15:30:59.184Z,11.47
2023-01-22T15:33:26.668Z,11.31
2023-01-22T15:35:54.019Z,11.40
2023-01-22T15:38:21.662Z,11.54
2023-01-22T15:40:48.927Z,11.40
2023-01-22T15:43:16.213Z,11.31
2023-01-22T15:45:43.690Z,11.41
2023-01-22T15:48:13.611Z,11.70
2023-01-22T15:50:40.829Z,11.65
2023-01-22T15:53:08.374Z,11.82
2023-01-22T15:55:35.733Z,11.78
2023-01-22T15:58:03.085Z,11.96
2023-01-22T16:00:31.483Z,11.86
2023-01-22T16:02:59.117Z,11.86
2023-01-22T16:05:26.403Z,11.86
2023-01-22T16:07:53.788Z,11.94
2023-01-22T16:10:21.464Z,11.97
2023-01-22T16:12:49.032Z,11.94
2023-01-22T16:15:16.560Z,11.89
2023-01-22T16:17:44.153Z,11.82
2023-01-22T16:20:11.528Z,11.89
2023-01-22T16:22:38.834Z,12.01
2023-01-22T16:25:06.488Z,11.85
2023-01-22T16:27:33.855Z,11.98
2023-01-22T16:30:01.331Z,11.91
2023-01-22T16:32:28.950Z,11.84
2023-01-22T16:34:56.419Z,11.39
2023-01-22T16:37:23.823Z,11.51
2023-01-22T16:39:51.448Z,11.65
2023-01-22T16:42:18.878Z,11.07
2023-01-22T16:44:47.380Z,11.40
2023-01-22T16:47:14.879Z,11.52
2023-01-22T16:49:42.807Z,11.31
2023-01-22T16:52:21.990Z,11.54
2023-01-22T16:54:50.614Z,11.55
2023-01-22T16:57:20.122Z,11.61
2023-01-22T16:59:47.548Z,11.03
2023-01-22T17:02:15.712Z,10.57
2023-01-22T17:04:43.309Z,10.93
2023-01-22T17:07:17.776Z,11.27
2023-01-22T17:09:55.336Z,11.04
2023-01-22T17:12:23.101Z,11.25
2023-01-22T17:14:52.685Z,11.53
2023-01-22T17:17:20.383Z,11.56
2023-01-22T17:19:47.557Z,11.69
2023-01-22T17:22:14.919Z,11.76
2023-01-22T17:24:42.562Z,11.73
2023-01-22T17:27:12.057Z,11.64
2023-01-22T17:29:39.602Z,11.91
2023-01-22T17:32:07.667Z,11.92
2023-01-22T17:34:37.370Z,11.91
2023-01-22T17:37:09.528Z,11.93
2023-01-22T17:39:37.984Z,11.84
2023-01-22T17:42:06.080Z,11.88
2023-01-22T17:44:34.948Z,11.83
2023-01-22T17:47:03.524Z,11.84
2023-01-22T17:49:32.558Z,11.86
2023-01-22T17:51:59.895Z,11.86
2023-01-22T17:54:27.447Z,11.85
2023-01-22T17:56:54.932Z,11.45
2023-01-22T17:59:23.152Z,10.99
2023-01-22T18:01:51.355Z,11.69
2023-01-22T18:04:19.202Z,11.62
2023-01-22T18:06:46.955Z,11.61
2023-01-22T18:09:14.451Z,11.61
2023-01-22T18:11:42.668Z,11.58
2023-01-22T18:14:11.835Z,11.77
2023-01-22T18:16:40.865Z,11.86
2023-01-22T18:19:08.727Z,11.90
2023-01-22T18:21:36.652Z,11.99
2023-01-22T18:24:04.735Z,11.98
2023-01-22T18:26:32.497Z,11.84
2023-01-22T18:28:59.891Z,11.91
2023-01-22T18:31:28.307Z,11.86
2023-01-22T18:33:57.130Z,11.89
2023-01-22T18:36:25.257Z,11.96
2023-01-22T18:38:52.780Z,11.97
2023-01-22T18:41:24.092Z,11.73
2023-01-22T18:43:53.708Z,11.68
2023-01-22T18:46:22.147Z,11.84
2023-01-22T18:48:52.399Z,11.81
2023-01-22T18:51:19.866Z,11.84
2023-01-22T18:53:47.297Z,11.84
2023-01-22T18:56:14.649Z,11.73
2023-01-22T18:58:44.680Z,11.80
2023-01-22T19:01:13.750Z,11.80
2023-01-22T19:03:42.188Z,11.66
2023-01-22T19:06:16.395Z,11.96
2023-01-22T19:08:48.265Z,11.80
2023-01-22T19:11:15.984Z,11.56
2023-01-22T19:13:44.947Z,11.06
2023-01-22T19:16:14.396Z,11.01
2023-01-22T19:18:42.887Z,11.33
2023-01-22T19:21:12.367Z,11.49
2023-01-22T19:23:41.093Z,11.65
2023-01-22T19:26:10.843Z,11.78
2023-01-22T19:28:38.524Z,11.80
2023-01-22T19:31:14.181Z,11.64
2023-01-22T19:33:43.016Z,11.69
2023-01-22T19:36:11.247Z,11.68
2023-01-22T19:38:38.796Z,11.59
2023-01-22T19:41:06.436Z,11.57
2023-01-22T19:43:33.865Z,11.45
2023-01-22T19:46:02.514Z,11.60
2023-01-22T19:48:30.472Z,11.55
2023-01-22T19:50:58.922Z,11.29
2023-01-22T19:53:26.467Z,11.18
2023-01-22T19:55:54.236Z,10.93
2023-01-22T19:58:21.552Z,11.10
2023-01-22T20:00:48.917Z,11.22
2023-01-22T20:03:16.573Z,11.09
2023-01-22T20:05:44.377Z,11.31
2023-01-22T20:08:11.975Z,11.20
2023-01-22T20:10:39.886Z,11.26
2023-01-22T20:13:07.573Z,11.20
2023-01-22T20:15:41.341Z,11.31
2023-01-22T20:18:09.680Z,11.41
2023-01-22T20:20:37.076Z,11.30
2023-01-22T20:23:04.493Z,11.31
2023-01-22T20:25:32.252Z,11.28
2023-01-22T20:27:59.949Z,11.25
2023-01-22T20:30:27.446Z,11.19
2023-01-22T20:32:56.652Z,11.17
2023-01-22T20:35:24.016Z,10.98
2023-01-22T20:37:51.410Z,10.87
2023-01-22T20:40:19.151Z,10.46
2023-01-22T20:42:46.524Z,10.40
2023-01-22T20:45:14.033Z,10.65
2023-01-22T20:47:41.832Z,10.69
2023-01-22T20:50:09.539Z,10.74
2023-01-22T20:52:37.004Z,10.46
2023-01-22T20:55:04.980Z,10.70
2023-01-22T20:57:32.336Z,10.55
2023-01-22T20:59:59.725Z,10.51
2023-01-22T21:02:27.275Z,10.21
2023-01-22T21:04:56.535Z,10.24
2023-01-22T21:07:24.020Z,9.97
2023-01-22T21:09:51.691Z,10.29
2023-01-22T21:12:19.201Z,10.06
2023-01-22T21:14:46.733Z,10.23
2023-01-22T21:17:14.343Z,10.34
2023-01-22T21:19:44.165Z,10.25
2023-01-22T21:22:11.687Z,10.36
2023-01-22T21:24:39.194Z,10.31
2023-01-22T21:27:06.428Z,9.90
2023-01-22T21:29:33.759Z,10.10
2023-01-22T21:32:01.311Z,9.87
2023-01-22T21:34:30.065Z,10.20
2023-01-22T21:36:59.522Z,9.78
2023-01-22T21:39:30.664Z,10.13
2023-01-22T21:42:16.779Z,9.89
2023-01-22T21:45:03.087Z,9.92
2023-01-22T21:47:31.274Z,9.90
2023-01-22T21:49:58.816Z,9.87
2023-01-22T21:52:26.521Z,10.05
2023-01-22T21:54:53.688Z,10.01
2023-01-22T21:57:21.216Z,10.03
2023-01-22T21:59:48.494Z,9.85
2023-01-22T22:02:17.446Z,9.99
2023-01-22T22:04:45.172Z,9.86
2023-01-22T22:07:12.902Z,9.80
2023-01-22T22:09:40.151Z,9.92
2023-01-22T22:12:07.705Z,10.07
2023-01-22T22:14:34.909Z,10.04
2023-01-22T22:17:02.194Z,9.64
2023-01-22T22:19:29.719Z,9.80
2023-01-22T22:21:56.925Z,9.70
2023-01-22T22:24:24.078Z,9.83
2023-01-22T22:26:51.532Z,9.71
2023-01-22T22:29:18.772Z,9.77
2023-01-22T22:31:46.043Z,9.87
2023-01-22T22:34:13.599Z,9.83
2023-01-22T22:36:40.779Z,9.66
2023-01-22T22:39:07.973Z,9.51
2023-01-22T22:41:39.288Z,9.44
2023-01-22T22:44:06.527Z,8.96
2023-01-22T22:46:35.604Z,9.59
2023-01-22T22:49:03.324Z,9.52
2023-01-22T22:51:32.120Z,9.51
2023-01-22T22:54:00.707Z,9.29
2023-01-22T22:56:28.653Z,9.25
2023-01-22T22:58:55.924Z,9.23
2023-01-22T23:01:23.980Z,9.41
2023-01-22T23:03:51.881Z,9.30
2023-01-22T23:06:20.503Z,9.35
2023-01-22T23:08:52.097Z,9.40
2023-01-22T23:11:20.867Z,9.24
2023-01-22T23:13:51.376Z,8.77
2023-01-22T23:16:19.399Z,8.91
2023-01-22T23:18:49.484Z,9.22
2023-01-22T23:21:20.943Z,9.15
2023-01-22T23:23:48.641Z,9.21
2023-01-22T23:26:17.735Z,9.34
2023-01-22T23:28:45.077Z,9.18
2023-01-22T23:31:13.711Z,8.95
2023-01-22T23:33:40.996Z,9.28
2023-01-22T23:36:09.593Z,9.27
2023-01-22T23:38:37.148Z,9.24
2023-01-22T23:41:05.425Z,9.41
2023-01-22T23:43:33.051Z,9.26
2023-01-22T23:46:00.813Z,8.99
2023-01-22T23:48:28.151Z,8.96
2023-01-22T23:50:55.458Z,9.19
2023-01-22T23:53:22.962Z,9.05
2023-01-22T23:55:50.112Z,9.18
2023-01-22T23:58:17.255Z,9.00
